Big Bear Station Historical Data
Daily Summary for September 23, 2017 Units:  English    Metric   Both
« Previous Day
Next Day »
Daily Weekly Monthly Yearly Custom
  High: Low: Average:
Temperature: 57.2 °F 32.0 °F 42.6 °F
Dew Point: 35.3 °F 25.1 °F 29.6 °F
Humidity: 98 % 35 % 65 %
Wind Speed: 6.3 mph 0.0 mph 1.6 mph
Wind Gust: -999.0 mph - -
Wind:- - WSW
Pressure: 30.05 in 29.95 in -
Precipitation: 0.00 in    
Historical Graphs
 
 
Tabular Data for September 23, 2017
Time Temperature Dew Point Pressure Wind Wind Speed Wind Gust Humidity Rainfall Rate (Hourly)
00:04 35.4 °F 32.8 °F 29.96 in Calm   -999.0 mph 90 % 0 in
00:19 35.6 °F 33.0 °F 29.96 in South 1.7 mph -999.0 mph 90 % 0 in
00:34 35.2 °F 32.8 °F 29.96 in Calm   -999.0 mph 91 % 0 in
00:49 34.7 °F 32.6 °F 29.96 in Calm   -999.0 mph 92 % 0 in
01:04 34.7 °F 32.9 °F 29.96 in Calm   -999.0 mph 93 % 0 in
01:20 34.5 °F 32.7 °F 29.95 in Calm   -999.0 mph 93 % 0 in
01:35 33.8 °F 31.7 °F 29.96 in Calm   -999.0 mph 92 % 0 in
01:50 33.6 °F 31.8 °F 29.96 in Calm   -999.0 mph 93 % 0 in
02:05 33.3 °F 31.5 °F 29.96 in Calm   -999.0 mph 93 % 0 in
02:20 33.3 °F 31.8 °F 29.96 in Calm   -999.0 mph 94 % 0 in
02:36 33.1 °F 31.6 °F 29.95 in Calm   -999.0 mph 94 % 0 in
02:51 32.9 °F 31.4 °F 29.95 in Calm   -999.0 mph 94 % 0 in
03:06 32.5 °F 31.0 °F 29.95 in Calm   -999.0 mph 94 % 0 in
03:21 32.4 °F 31.1 °F 29.96 in Calm   -999.0 mph 95 % 0 in
03:37 32.0 °F 30.7 °F 29.95 in Calm   -999.0 mph 95 % 0 in
03:52 32.0 °F 30.7 °F 29.95 in Calm   -999.0 mph 95 % 0 in
04:07 32.2 °F 31.2 °F 29.95 in Calm   -999.0 mph 96 % 0 in
04:22 32.0 °F 31.0 °F 29.95 in Calm   -999.0 mph 96 % 0 in
04:37 32.5 °F 31.7 °F 29.95 in Calm   -999.0 mph 97 % 0 in
04:53 32.7 °F 31.9 °F 29.95 in Calm   -999.0 mph 97 % 0 in
05:08 32.5 °F 31.7 °F 29.95 in Calm   -999.0 mph 97 % 0 in
05:23 32.2 °F 31.4 °F 29.95 in Calm   -999.0 mph 97 % 0 in
05:38 32.2 °F 31.4 °F 29.95 in Calm   -999.0 mph 97 % 0 in
05:53 32.5 °F 32.0 °F 29.96 in Calm   -999.0 mph 98 % 0 in
06:09 32.4 °F 31.9 °F 29.96 in Calm   -999.0 mph 98 % 0 in
06:24 32.2 °F 31.7 °F 29.96 in Calm   -999.0 mph 98 % 0 in
06:39 32.0 °F 31.5 °F 29.97 in Calm   -999.0 mph 98 % 0 in
07:09 32.5 °F 32.0 °F 29.97 in Calm   -999.0 mph 98 % 0 in
07:25 32.9 °F 32.4 °F 29.97 in Calm   -999.0 mph 98 % 0 in
07:40 33.3 °F 32.8 °F 29.98 in Calm   -999.0 mph 98 % 0 in
07:55 34.0 °F 33.5 °F 29.98 in Calm   -999.0 mph 98 % 0 in
08:10 35.1 °F 34.6 °F 29.98 in Calm   -999.0 mph 98 % 0 in
08:25 36.3 °F 35.3 °F 29.98 in Calm   -999.0 mph 96 % 0 in
08:41 36.3 °F 35.0 °F 29.98 in Calm   -999.0 mph 95 % 0 in
08:56 37.2 °F 33.7 °F 29.99 in Calm   -999.0 mph 87 % 0 in
09:11 38.5 °F 31.3 °F 29.99 in Calm   -999.0 mph 75 % 0 in
09:26 41.0 °F 28.2 °F 29.99 in NNW 1.7 mph -999.0 mph 60 % 0 in
09:42 42.3 °F 27.7 °F 29.99 in NE 1.7 mph -999.0 mph 56 % 0 in
09:57 43.3 °F 26.8 °F 29.99 in SSW 2.2 mph -999.0 mph 52 % 0 in
10:12 44.8 °F 26.8 °F 29.99 in ESE 2.2 mph -999.0 mph 49 % 0 in
10:27 46.4 °F 27.8 °F 29.99 in WNW 2.2 mph -999.0 mph 48 % 0 in
10:43 50.0 °F 26.0 °F 30.00 in SW 1.7 mph -999.0 mph 39 % 0 in
10:58 50.9 °F 25.5 °F 29.99 in NW 1.7 mph -999.0 mph 37 % 0 in
11:14 51.1 °F 25.1 °F 29.99 in Calm   -999.0 mph 36 % 0 in
11:29 53.2 °F 26.2 °F 29.99 in NW 1.1 mph -999.0 mph 35 % 0 in
11:44 54.5 °F 27.4 °F 29.99 in NW 4.7 mph -999.0 mph 35 % 0 in
11:59 55.2 °F 30.7 °F 29.99 in NNW 4.7 mph -999.0 mph 39 % 0 in
12:15 55.2 °F 28.7 °F 29.99 in NW 4.2 mph -999.0 mph 36 % 0 in
12:30 56.3 °F 29.7 °F 30.00 in NW 3.2 mph -999.0 mph 36 % 0 in
12:45 56.8 °F 31.5 °F 30.00 in NNW 4.7 mph -999.0 mph 38 % 0 in
13:00 56.8 °F 30.8 °F 30.00 in NNE 2.2 mph -999.0 mph 37 % 0 in
13:15 57.2 °F 31.8 °F 30.00 in NW 6.3 mph -999.0 mph 38 % 0 in
13:31 57.2 °F 31.8 °F 30.00 in WNW 5.8 mph -999.0 mph 38 % 0 in
13:46 55.0 °F 28.5 °F 30.00 in NNW 3.2 mph -999.0 mph 36 % 0 in
14:01 56.5 °F 29.2 °F 30.00 in NNE 4.2 mph -999.0 mph 35 % 0 in
14:16 55.6 °F 29.7 °F 30.00 in NNW 4.2 mph -999.0 mph 37 % 0 in
14:31 56.7 °F 31.4 °F 30.00 in NNW 5.3 mph -999.0 mph 38 % 0 in
14:47 56.1 °F 29.5 °F 30.00 in NNW 3.2 mph -999.0 mph 36 % 0 in
15:02 55.9 °F 29.3 °F 30.00 in NW 5.3 mph -999.0 mph 36 % 0 in
15:17 54.9 °F 28.4 °F 30.00 in NW 5.3 mph -999.0 mph 36 % 0 in
15:33 55.0 °F 29.8 °F 30.00 in North 5.3 mph -999.0 mph 38 % 0 in
15:48 54.1 °F 29.7 °F 30.00 in North 5.3 mph -999.0 mph 39 % 0 in
16:04 54.7 °F 30.8 °F 30.00 in NNE 4.7 mph -999.0 mph 40 % 0 in
16:19 53.8 °F 26.8 °F 30.00 in NW 2.2 mph -999.0 mph 35 % 0 in
16:35 54.0 °F 29.6 °F 30.01 in NNE 4.7 mph -999.0 mph 39 % 0 in
16:50 53.6 °F 27.9 °F 30.01 in NE 3.2 mph -999.0 mph 37 % 0 in
17:05 52.2 °F 27.3 °F 30.01 in NNE 2.2 mph -999.0 mph 38 % 0 in
17:20 52.0 °F 29.6 °F 30.01 in NW 4.2 mph -999.0 mph 42 % 0 in
17:36 51.3 °F 29.0 °F 30.01 in NNW 2.7 mph -999.0 mph 42 % 0 in
17:51 50.5 °F 28.2 °F 30.01 in NNW 3.7 mph -999.0 mph 42 % 0 in
18:06 50.0 °F 28.9 °F 30.01 in NE 2.7 mph -999.0 mph 44 % 0 in
18:21 49.3 °F 29.9 °F 30.02 in NNW 3.7 mph -999.0 mph 47 % 0 in
18:36 48.2 °F 27.8 °F 30.02 in North 3.7 mph -999.0 mph 45 % 0 in
18:52 47.7 °F 27.9 °F 30.02 in North 3.2 mph -999.0 mph 46 % 0 in
19:07 46.9 °F 28.2 °F 30.02 in NNE 1.7 mph -999.0 mph 48 % 0 in
19:22 46.4 °F 27.8 °F 30.02 in North 2.2 mph -999.0 mph 48 % 0 in
19:37 45.9 °F 28.3 °F 30.03 in NNW 2.7 mph -999.0 mph 50 % 0 in
19:52 45.9 °F 28.8 °F 30.03 in NNW 2.7 mph -999.0 mph 51 % 0 in
20:08 45.5 °F 28.9 °F 30.03 in North 1.7 mph -999.0 mph 52 % 0 in
20:23 44.4 °F 28.3 °F 30.03 in Calm   -999.0 mph 53 % 0 in
20:38 41.9 °F 26.0 °F 30.03 in Calm   -999.0 mph 53 % 0 in
20:53 41.0 °F 25.6 °F 30.04 in Calm   -999.0 mph 54 % 0 in
21:08 40.3 °F 25.4 °F 30.04 in SSE 1.1 mph -999.0 mph 55 % 0 in
21:24 39.4 °F 25.4 °F 30.04 in South 1.7 mph -999.0 mph 57 % 0 in
21:39 38.8 °F 25.7 °F 30.04 in Calm   -999.0 mph 59 % 0 in
21:54 37.9 °F 26.0 °F 30.04 in Calm   -999.0 mph 62 % 0 in
22:09 37.2 °F 27.3 °F 30.05 in Calm   -999.0 mph 67 % 0 in
22:25 36.9 °F 26.2 °F 30.05 in Calm   -999.0 mph 65 % 0 in
22:40 36.5 °F 25.8 °F 30.05 in Calm   -999.0 mph 65 % 0 in
22:55 35.8 °F 25.6 °F 30.05 in Calm   -999.0 mph 66 % 0 in
23:10 35.2 °F 25.3 °F 30.05 in Calm   -999.0 mph 67 % 0 in
23:25 35.1 °F 25.2 °F 30.05 in Calm   -999.0 mph 67 % 0 in
23:41 35.4 °F 26.6 °F 30.05 in SSE 2.2 mph -999.0 mph 70 % 0 in
Big Bear CA Weather
Compliments of Weather Underground - 1.5 mb